Time;durP1;ratioP1;P1;durP2;ratioP2;P2;SDS_P1;SDS_P2;PMS_P1;PMS_P2;Temp;Humidity;BMP_temperature;BMP_pressure;BME280_temperature;BME280_humidity;BME280_pressure;Samples;Min_cycle;Max_cycle;Signal;HPM_P1;HPM_P2
2023/01/01 00:00:22;;;;;;;68.30;50.75;;;16.00;75.30;;;;;;4909185;28;89977;-47
2023/01/01 00:02:48;;;;;;;69.55;50.80;;;16.00;75.30;;;;;;4910945;28;90684;-51
2023/01/01 00:05:13;;;;;;;69.55;50.92;;;16.00;75.30;;;;;;4915293;28;90960;-48
2023/01/01 00:07:39;;;;;;;72.05;51.05;;;16.00;75.40;;;;;;4909848;28;90681;-52
2023/01/01 00:12:49;;;;;;;68.63;51.08;;;16.00;75.30;;;;;;4901602;28;90544;-49
2023/01/01 00:15:15;;;;;;;70.22;51.30;;;16.00;75.30;;;;;;4921064;28;90809;-53
2023/01/01 00:17:41;;;;;;;69.22;50.72;;;16.00;75.10;;;;;;4913232;28;89968;-53
2023/01/01 00:20:07;;;;;;;68.72;50.45;;;16.00;75.20;;;;;;4910412;28;89967;-53
2023/01/01 00:22:32;;;;;;;69.47;50.92;;;15.90;75.10;;;;;;4905433;28;91065;-49
2023/01/01 00:24:58;;;;;;;70.47;50.67;;;15.90;75.20;;;;;;4920999;28;91368;-47
2023/01/01 00:27:23;;;;;;;69.45;50.67;;;15.90;75.20;;;;;;4918440;28;89994;-50
2023/01/01 00:29:49;;;;;;;69.50;50.83;;;15.90;75.20;;;;;;4908044;28;91243;-51
2023/01/01 00:32:15;;;;;;;69.15;50.78;;;15.90;75.10;;;;;;4904688;28;90565;-52
2023/01/01 00:34:40;;;;;;;70.10;50.55;;;15.90;75.10;;;;;;4912109;28;89598;-50
2023/01/01 00:37:06;;;;;;;68.13;50.35;;;15.90;75.10;;;;;;4909602;28;91079;-49
2023/01/01 00:39:31;;;;;;;69.35;50.85;;;15.90;75.10;;;;;;4905395;28;90442;-48
2023/01/01 00:41:57;;;;;;;69.47;50.80;;;15.90;75.10;;;;;;4917375;28;89776;-52
2023/01/01 00:44:23;;;;;;;68.78;50.50;;;15.90;75.00;;;;;;4911872;28;91080;-50
2023/01/01 00:46:48;;;;;;;70.22;50.90;;;15.90;75.00;;;;;;4910546;28;94375;-52
2023/01/01 00:49:14;;;;;;;70.68;51.30;;;15.90;75.00;;;;;;4895214;28;91444;-49
2023/01/01 00:51:40;;;;;;;70.65;50.75;;;15.90;75.00;;;;;;4908854;28;91467;-49
2023/01/01 00:54:05;;;;;;;68.78;50.45;;;15.90;75.00;;;;;;4908053;28;91434;-51
2023/01/01 00:56:31;;;;;;;68.63;50.90;;;15.90;75.00;;;;;;4907313;28;92016;-48
2023/01/01 00:58:57;;;;;;;69.20;50.75;;;15.90;74.90;;;;;;4919048;28;89783;-50
2023/01/01 01:01:22;;;;;;;72.47;51.20;;;15.90;75.70;;;;;;4903467;28;90238;-51
2023/01/01 01:03:48;;;;;;;68.13;50.08;;;15.90;74.90;;;;;;4908928;28;91944;-48
2023/01/01 01:06:15;;;;;;;70.95;50.60;;;15.90;74.90;;;;;;4904818;28;90478;-50
2023/01/01 01:08:44;;;;;;;69.30;50.72;;;15.90;74.90;;;;;;4907527;28;90265;-51
2023/01/01 01:11:12;;;;;;;68.40;50.45;;;15.90;74.90;;;;;;4903765;28;89483;-51
2023/01/01 01:13:38;;;;;;;73.63;50.95;;;15.90;74.90;;;;;;4897568;28;91735;-47
2023/01/01 01:16:12;;;;;;;70.82;50.70;;;16.00;74.80;;;;;;4902150;28;91403;-49
2023/01/01 01:18:38;;;;;;;70.68;50.53;;;16.00;74.60;;;;;;4917069;28;91033;-50
2023/01/01 01:21:04;;;;;;;67.97;50.28;;;16.00;74.60;;;;;;4912220;28;90326;-47
2023/01/01 01:23:31;;;;;;;70.05;50.60;;;16.00;74.50;;;;;;4907980;28;91323;-48
2023/01/01 01:26:11;;;;;;;70.55;50.55;;;16.00;74.60;;;;;;4902201;28;91904;-48
2023/01/01 01:28:37;;;;;;;68.87;50.80;;;16.00;74.50;;;;;;4910053;28;89967;-51
2023/01/01 01:31:04;;;;;;;69.10;51.03;;;16.00;74.50;;;;;;4912955;28;89867;-48
2023/01/01 01:33:30;;;;;;;72.05;50.75;;;16.00;74.40;;;;;;4905437;28;91858;-47
2023/01/01 01:35:55;;;;;;;68.85;50.63;;;16.00;74.50;;;;;;4914675;28;89273;-47
2023/01/01 01:38:21;;;;;;;68.82;50.45;;;16.00;74.40;;;;;;4917897;28;89510;-49
2023/01/01 01:40:47;;;;;;;71.03;50.55;;;16.00;74.40;;;;;;4909563;28;90215;-53
2023/01/01 01:43:43;;;;;;;69.32;50.78;;;16.00;74.40;;;;;;4909582;28;91308;-50
2023/01/01 01:46:14;;;;;;;69.00;50.33;;;16.00;74.30;;;;;;4907204;28;90773;-48
2023/01/01 01:48:46;;;;;;;68.45;50.42;;;16.00;74.30;;;;;;4920306;28;90078;-50
2023/01/01 01:51:14;;;;;;;72.50;51.08;;;16.00;74.30;;;;;;4904505;28;90524;-51
2023/01/01 01:53:53;;;;;;;68.70;50.60;;;16.00;74.30;;;;;;4909051;28;91101;-50
2023/01/01 01:56:25;;;;;;;68.78;50.63;;;16.00;74.20;;;;;;4907746;28;90221;-53
2023/01/01 01:58:50;;;;;;;71.63;51.03;;;16.00;74.30;;;;;;4912025;28;89797;-51
2023/01/01 02:01:16;;;;;;;70.10;51.17;;;16.00;74.20;;;;;;4911690;28;93975;-47
2023/01/01 02:04:11;;;;;;;68.93;50.70;;;16.00;74.90;;;;;;4910761;28;89611;-50
2023/01/01 02:06:38;;;;;;;69.50;50.85;;;15.90;74.10;;;;;;4911415;28;92588;-52
2023/01/01 02:09:06;;;;;;;70.35;50.55;;;16.00;74.20;;;;;;4906814;28;91914;-52
2023/01/01 02:11:32;;;;;;;68.22;50.47;;;16.00;74.10;;;;;;4911228;28;89929;-51
2023/01/01 02:14:00;;;;;;;69.43;50.78;;;15.90;74.00;;;;;;4907259;28;90015;-51
2023/01/01 02:16:46;;;;;;;70.53;50.65;;;16.00;74.00;;;;;;4914136;28;89822;-51
2023/01/01 02:19:33;;;;;;;68.10;50.42;;;16.00;74.00;;;;;;4910712;28;89753;-52
2023/01/01 02:22:01;;;;;;;69.20;50.55;;;16.00;73.90;;;;;;4908453;28;92534;-52
2023/01/01 02:24:46;;;;;;;70.78;50.65;;;16.00;73.90;;;;;;4910351;28;91598;-51
2023/01/01 02:27:18;;;;;;;71.25;50.45;;;16.00;73.90;;;;;;4907501;28;89879;-50
2023/01/01 02:30:05;;;;;;;68.38;50.63;;;16.00;73.90;;;;;;4899564;28;93163;-52
2023/01/01 02:32:48;;;;;;;69.07;50.80;;;16.00;73.90;;;;;;4904973;28;91645;-49
2023/01/01 02:35:35;;;;;;;70.50;50.63;;;16.00;73.80;;;;;;4896949;28;99231;-50
2023/01/01 02:38:18;;;;;;;70.40;50.53;;;16.00;73.80;;;;;;4911381;28;95352;-52
2023/01/01 02:40:50;;;;;;;69.15;50.80;;;16.00;73.80;;;;;;4893480;28;97072;-48
2023/01/01 02:43:16;;;;;;;69.38;50.83;;;16.00;73.70;;;;;;4917855;28;92852;-49
2023/01/01 02:45:42;;;;;;;71.47;50.65;;;16.00;73.70;;;;;;4903135;28;91051;-50
2023/01/01 02:48:45;;;;;;;70.00;50.58;;;16.00;73.70;;;;;;4903676;28;91087;-51
2023/01/01 02:51:33;;;;;;;68.50;50.70;;;16.00;73.70;;;;;;4905644;28;89896;-49
2023/01/01 02:53:58;;;;;;;69.25;50.85;;;16.00;73.80;;;;;;4901286;28;89516;-50
2023/01/01 02:56:52;;;;;;;69.25;50.53;;;15.90;73.70;;;;;;4905222;28;93778;-52
2023/01/01 03:02:38;;;;;;;69.97;50.42;;;16.00;73.70;;;;;;4901954;28;91124;-50
2023/01/01 03:05:25;;;;;;;68.10;50.55;;;15.90;73.70;;;;;;4906317;28;92040;-48
2023/01/01 03:08:12;;;;;;;70.25;50.33;;;15.90;73.70;;;;;;4894994;28;90269;-51
2023/01/01 03:10:50;;;;;;;68.32;50.58;;;15.90;73.70;;;;;;4904985;28;96093;-53
2023/01/01 03:13:20;;;;;;;68.13;50.28;;;15.90;73.60;;;;;;4920208;28;92785;-49
2023/01/01 03:16:03;;;;;;;67.72;50.30;;;15.90;73.70;;;;;;4912270;28;90134;-51
2023/01/01 03:18:36;;;;;;;68.72;51.08;;;15.90;73.60;;;;;;4901789;28;90621;-49
2023/01/01 03:21:04;;;;;;;68.15;50.58;;;15.90;74.20;;;;;;4901180;28;89888;-50
2023/01/01 03:23:35;;;;;;;67.85;50.45;;;15.90;73.50;;;;;;4897166;28;91655;-51
2023/01/01 03:26:08;;;;;;;68.18;50.25;;;15.90;73.60;;;;;;4906727;28;90297;-48
2023/01/01 03:28:52;;;;;;;70.53;50.47;;;15.90;73.60;;;;;;4906124;28;93010;-51
2023/01/01 03:31:21;;;;;;;69.53;50.70;;;15.90;73.50;;;;;;4900770;28;89982;-51
2023/01/01 03:33:59;;;;;;;68.18;50.33;;;15.90;73.50;;;;;;4910249;28;89797;-49
2023/01/01 03:36:34;;;;;;;68.18;50.40;;;15.90;73.50;;;;;;4902253;28;94236;-49
2023/01/01 03:39:07;;;;;;;70.10;50.50;;;15.90;73.40;;;;;;4901318;28;93741;-49
2023/01/01 03:41:45;;;;;;;67.78;50.40;;;15.90;73.50;;;;;;4907335;28;89942;-49
2023/01/01 03:44:17;;;;;;;69.18;50.40;;;15.90;73.50;;;;;;4908792;28;90372;-49
2023/01/01 03:46:43;;;;;;;69.07;50.47;;;15.90;73.40;;;;;;4908688;28;94773;-48
2023/01/01 03:49:11;;;;;;;68.32;50.45;;;15.90;73.50;;;;;;4903355;28;90329;-49
2023/01/01 03:52:04;;;;;;;67.53;50.33;;;15.90;73.40;;;;;;4896393;28;92203;-46
2023/01/01 03:54:37;;;;;;;69.68;50.25;;;15.90;73.50;;;;;;4912021;28;90932;-47
2023/01/01 03:57:34;;;;;;;70.93;50.72;;;15.90;73.60;;;;;;4911119;28;90263;-50
2023/01/01 04:00:06;;;;;;;70.93;50.25;;;15.90;73.60;;;;;;4904148;28;89974;-51
2023/01/01 04:02:41;;;;;;;70.03;50.55;;;15.90;73.40;;;;;;4906810;28;91122;-47
2023/01/01 04:05:09;;;;;;;69.60;50.60;;;15.90;73.50;;;;;;4910140;28;90564;-52
2023/01/01 04:07:36;;;;;;;69.18;50.75;;;15.90;73.40;;;;;;4905028;28;94051;-47
2023/01/01 04:10:15;;;;;;;68.65;50.53;;;15.90;73.40;;;;;;4916723;28;90113;-51
2023/01/01 04:12:43;;;;;;;68.05;50.42;;;15.90;73.40;;;;;;4916915;28;90045;-50
2023/01/01 04:15:09;;;;;;;68.55;50.25;;;15.90;73.50;;;;;;4906830;28;90327;-49
2023/01/01 04:17:35;;;;;;;68.57;50.72;;;15.90;73.50;;;;;;4914824;28;89942;-50
2023/01/01 04:20:00;;;;;;;67.70;50.63;;;15.90;73.40;;;;;;4895035;28;96629;-47
2023/01/01 04:22:26;;;;;;;68.82;50.35;;;15.90;73.40;;;;;;4897601;28;92013;-51
2023/01/01 04:24:51;;;;;;;68.70;50.67;;;15.90;73.40;;;;;;4900537;28;93662;-48
2023/01/01 04:27:17;;;;;;;67.45;50.42;;;15.90;73.40;;;;;;4906514;28;90355;-49
2023/01/01 04:29:43;;;;;;;67.93;50.15;;;15.90;73.40;;;;;;4895880;28;89601;-45
2023/01/01 04:32:08;;;;;;;68.00;50.13;;;15.90;73.50;;;;;;4908968;28;95656;-46
2023/01/01 04:34:34;;;;;;;69.35;50.58;;;15.90;73.50;;;;;;4909885;28;89958;-47
2023/01/01 04:37:00;;;;;;;69.10;50.97;;;15.90;73.50;;;;;;4909485;28;90754;-47
2023/01/01 04:39:25;;;;;;;66.90;50.05;;;15.90;73.50;;;;;;4906528;28;90758;-49
2023/01/01 04:41:51;;;;;;;68.93;50.72;;;15.90;73.40;;;;;;4903303;28;90665;-49
2023/01/01 04:44:17;;;;;;;69.07;50.15;;;15.80;73.40;;;;;;4911923;28;97807;-47
2023/01/01 04:46:43;;;;;;;69.70;50.63;;;15.80;73.40;;;;;;4902352;28;89835;-51
2023/01/01 04:49:08;;;;;;;69.90;50.38;;;15.90;73.50;;;;;;4902670;28;96580;-46
2023/01/01 04:51:34;;;;;;;68.88;50.17;;;15.90;73.50;;;;;;4905712;28;90031;-50
2023/01/01 04:54:01;;;;;;;70.20;50.72;;;15.80;73.40;;;;;;4912208;28;90449;-48
2023/01/01 04:56:26;;;;;;;69.22;50.28;;;15.90;73.50;;;;;;4904972;28;89897;-51
2023/01/01 04:58:52;;;;;;;68.47;50.60;;;15.80;73.40;;;;;;4895222;28;91245;-50
2023/01/01 05:01:24;;;;;;;68.28;50.20;;;15.80;73.40;;;;;;4914865;28;89952;-50
2023/01/01 05:03:50;;;;;;;68.97;50.45;;;15.80;73.40;;;;;;4900837;28;92976;-50
2023/01/01 05:06:16;;;;;;;69.07;50.38;;;15.80;73.50;;;;;;4921079;28;89983;-48
2023/01/01 05:08:44;;;;;;;69.82;50.55;;;15.80;73.40;;;;;;4918143;28;91540;-48
2023/01/01 05:11:32;;;;;;;67.72;50.22;;;15.80;74.30;;;;;;4898790;28;95438;-48
2023/01/01 05:13:59;;;;;;;69.80;50.42;;;15.80;73.50;;;;;;4901366;28;90127;-51
2023/01/01 05:16:28;;;;;;;68.25;50.05;;;15.80;73.40;;;;;;4912549;28;89526;-49
2023/01/01 05:18:54;;;;;;;69.28;50.00;;;15.80;73.40;;;;;;4901725;28;91620;-46
2023/01/01 05:21:25;;;;;;;68.15;50.03;;;15.80;73.40;;;;;;4906478;28;93179;-48
2023/01/01 05:24:08;;;;;;;68.25;50.25;;;15.80;73.40;;;;;;4906114;28;91453;-48
2023/01/01 05:26:40;;;;;;;67.13;49.63;;;15.80;73.40;;;;;;4916671;28;92136;-47
2023/01/01 05:29:06;;;;;;;69.85;50.13;;;15.80;73.40;;;;;;4899572;28;93275;-45
2023/01/01 05:31:34;;;;;;;71.93;50.30;;;15.80;73.40;;;;;;4905490;28;93285;-47
2023/01/01 05:34:01;;;;;;;68.63;50.00;;;15.80;73.50;;;;;;4902776;28;93176;-46
2023/01/01 05:36:30;;;;;;;69.00;50.55;;;15.80;73.60;;;;;;4911163;28;91572;-50
2023/01/01 05:38:56;;;;;;;68.07;50.22;;;15.80;73.50;;;;;;4897096;28;93776;-49
2023/01/01 05:41:23;;;;;;;69.95;50.20;;;15.80;73.40;;;;;;4905072;28;90910;-47
2023/01/01 05:43:50;;;;;;;70.10;50.42;;;15.80;73.40;;;;;;4904757;28;90759;-48
2023/01/01 05:46:18;;;;;;;67.70;50.20;;;15.80;73.50;;;;;;4911982;28;89571;-48
2023/01/01 05:48:44;;;;;;;67.38;50.40;;;15.80;73.60;;;;;;4902592;28;90889;-46
2023/01/01 05:51:14;;;;;;;67.97;50.75;;;15.80;73.60;;;;;;4901107;28;90865;-48
2023/01/01 05:53:40;;;;;;;67.72;50.33;;;15.80;74.30;;;;;;4900529;28;90396;-50
2023/01/01 05:56:07;;;;;;;68.78;49.85;;;15.80;73.60;;;;;;4907465;28;93350;-47
2023/01/01 05:58:34;;;;;;;67.45;50.17;;;15.80;73.60;;;;;;4896993;28;96529;-46
2023/01/01 06:01:14;;;;;;;67.78;50.17;;;15.80;73.70;;;;;;4909871;28;91637;-48
2023/01/01 06:03:41;;;;;;;69.17;50.33;;;15.80;73.70;;;;;;4899002;28;89921;-52
2023/01/01 06:06:10;;;;;;;71.20;50.35;;;15.70;73.70;;;;;;4910612;28;90434;-48
2023/01/01 06:08:35;;;;;;;68.07;50.40;;;15.80;73.70;;;;;;4911345;28;90701;-49
2023/01/01 06:11:03;;;;;;;68.82;50.83;;;15.80;73.70;;;;;;4905039;28;91614;-46
2023/01/01 06:13:30;;;;;;;69.03;50.30;;;15.80;73.80;;;;;;4901559;28;90292;-50
2023/01/01 06:15:57;;;;;;;68.43;50.40;;;15.80;73.70;;;;;;4905778;28;89082;-47
2023/01/01 06:18:24;;;;;;;67.78;50.65;;;15.80;73.80;;;;;;4908556;28;94370;-48
2023/01/01 06:20:51;;;;;;;67.82;50.50;;;15.80;73.80;;;;;;4898361;28;90835;-49
2023/01/01 06:23:17;;;;;;;68.65;50.25;;;15.70;73.80;;;;;;4897483;28;92958;-46
2023/01/01 06:25:42;;;;;;;68.03;50.75;;;15.70;73.90;;;;;;4908281;28;90091;-48
2023/01/01 06:28:08;;;;;;;68.47;50.33;;;15.80;74.00;;;;;;4904298;28;90179;-47
2023/01/01 06:30:35;;;;;;;67.65;50.17;;;15.70;73.90;;;;;;4902739;28;94064;-46
2023/01/01 06:33:00;;;;;;;67.25;50.08;;;15.70;74.00;;;;;;4900171;28;89957;-47
2023/01/01 06:35:27;;;;;;;67.70;50.25;;;15.70;73.90;;;;;;4913675;28;90190;-50
2023/01/01 06:37:53;;;;;;;67.57;50.20;;;15.70;73.90;;;;;;4905228;28;93068;-47
2023/01/01 06:40:18;;;;;;;70.05;50.25;;;15.70;73.90;;;;;;4903954;28;89237;-46
2023/01/01 06:42:44;;;;;;;66.82;50.13;;;15.70;73.90;;;;;;4916371;28;91164;-47
2023/01/01 06:45:10;;;;;;;68.05;50.28;;;15.70;73.90;;;;;;4901620;28;91661;-48
2023/01/01 06:47:36;;;;;;;69.22;50.45;;;15.70;74.00;;;;;;4905505;28;91612;-48
2023/01/01 06:50:03;;;;;;;67.70;50.30;;;15.70;74.00;;;;;;4903415;28;93283;-50
2023/01/01 06:52:28;;;;;;;68.90;50.03;;;15.70;74.10;;;;;;4909743;28;90621;-49
2023/01/01 06:54:54;;;;;;;66.55;50.08;;;15.60;74.10;;;;;;4898855;28;89649;-47
2023/01/01 06:57:19;;;;;;;67.57;50.13;;;15.60;74.00;;;;;;4902172;28;91792;-49
2023/01/01 06:59:45;;;;;;;67.65;50.05;;;15.70;74.10;;;;;;4910517;28;90169;-46
2023/01/01 07:02:11;;;;;;;69.07;50.50;;;15.70;74.10;;;;;;4916108;28;92597;-47
2023/01/01 07:04:37;;;;;;;68.03;50.33;;;15.70;74.10;;;;;;4892811;28;90791;-46
2023/01/01 07:07:03;;;;;;;67.70;50.38;;;15.70;74.10;;;;;;4904025;28;95931;-46
2023/01/01 07:09:28;;;;;;;68.82;50.03;;;15.60;74.20;;;;;;4900392;28;90327;-47
2023/01/01 07:11:54;;;;;;;67.30;49.65;;;15.60;74.10;;;;;;4903854;28;90530;-46
2023/01/01 07:14:20;;;;;;;68.07;50.25;;;15.60;74.10;;;;;;4909252;28;90011;-46
2023/01/01 07:16:45;;;;;;;68.45;50.42;;;15.60;74.10;;;;;;4900079;28;90383;-47
2023/01/01 07:19:11;;;;;;;71.47;50.45;;;15.70;74.20;;;;;;4910677;28;89889;-47
2023/01/01 07:21:44;;;;;;;68.80;50.25;;;15.60;74.00;;;;;;4908790;28;89494;-45
2023/01/01 07:24:12;;;;;;;67.75;50.05;;;15.60;74.10;;;;;;4900543;28;90058;-47
2023/01/01 07:26:39;;;;;;;66.70;50.03;;;15.60;74.10;;;;;;4904015;28;94288;-45
2023/01/01 07:29:07;;;;;;;67.00;50.03;;;15.60;74.10;;;;;;4906503;28;92774;-47
2023/01/01 07:31:35;;;;;;;68.47;50.13;;;15.60;74.20;;;;;;4904695;28;90066;-49
2023/01/01 07:34:01;;;;;;;70.00;49.97;;;15.60;74.10;;;;;;4894904;28;91528;-48
2023/01/01 07:36:26;;;;;;;68.85;50.15;;;15.60;74.20;;;;;;4911251;28;90913;-49
2023/01/01 07:38:52;;;;;;;69.47;50.42;;;15.60;74.40;;;;;;4907109;28;96270;-48
2023/01/01 07:41:18;;;;;;;68.25;50.35;;;15.60;74.30;;;;;;4903992;28;92698;-46
2023/01/01 07:43:43;;;;;;;69.15;50.38;;;15.60;74.40;;;;;;4900371;28;93246;-47
2023/01/01 07:46:15;;;;;;;67.57;49.78;;;15.60;74.40;;;;;;4906086;28;90309;-49
2023/01/01 07:48:41;;;;;;;70.38;50.17;;;15.60;74.40;;;;;;4906313;28;91919;-46
2023/01/01 07:51:07;;;;;;;68.88;49.95;;;15.60;75.10;;;;;;4901164;28;92165;-50
2023/01/01 07:53:33;;;;;;;69.10;50.33;;;15.60;74.40;;;;;;4915733;28;90232;-46
2023/01/01 07:55:58;;;;;;;67.78;50.03;;;15.60;74.40;;;;;;4910915;28;89866;-49
2023/01/01 07:58:24;;;;;;;68.38;50.17;;;15.60;74.30;;;;;;4919853;28;90506;-48
2023/01/01 08:00:50;;;;;;;68.97;50.30;;;15.60;74.30;;;;;;4902469;28;91560;-50
2023/01/01 08:03:15;;;;;;;70.65;50.40;;;15.60;74.30;;;;;;4907387;28;89963;-47
2023/01/01 08:05:41;;;;;;;68.38;50.15;;;15.60;74.40;;;;;;4907322;28;89755;-50
2023/01/01 08:08:08;;;;;;;68.40;50.25;;;15.60;74.30;;;;;;4895163;28;89962;-46
2023/01/01 08:10:33;;;;;;;70.57;50.38;;;15.50;74.30;;;;;;4908038;28;90184;-48
2023/01/01 08:13:01;;;;;;;67.50;49.88;;;15.60;74.40;;;;;;4901905;28;90106;-52
2023/01/01 08:15:26;;;;;;;70.07;49.97;;;15.60;74.40;;;;;;4907632;28;90230;-48
2023/01/01 08:18:00;;;;;;;67.30;49.72;;;15.50;74.30;;;;;;4906358;28;89939;-49
2023/01/01 08:20:27;;;;;;;70.18;50.20;;;15.50;74.30;;;;;;4902496;28;89883;-51
2023/01/01 08:22:53;;;;;;;68.85;50.15;;;15.60;74.40;;;;;;4920997;28;90097;-47
2023/01/01 08:25:19;;;;;;;71.07;50.53;;;15.60;74.40;;;;;;4910489;28;91464;-47
2023/01/01 08:27:45;;;;;;;67.35;50.10;;;15.50;74.30;;;;;;4892625;28;91104;-46
2023/01/01 08:30:12;;;;;;;69.13;50.20;;;15.50;74.30;;;;;;4899727;28;92516;-46
2023/01/01 08:32:38;;;;;;;68.35;50.28;;;15.60;74.30;;;;;;4901376;28;90587;-51
2023/01/01 08:35:04;;;;;;;67.95;50.05;;;15.60;74.40;;;;;;4893267;28;94747;-46
2023/01/01 08:37:30;;;;;;;69.03;50.20;;;15.60;74.30;;;;;;4896642;28;92080;-46
2023/01/01 08:39:56;;;;;;;69.40;50.17;;;15.50;74.30;;;;;;4893982;28;91483;-47
2023/01/01 08:42:21;;;;;;;69.18;50.30;;;15.50;74.30;;;;;;4911918;28;89816;-46
2023/01/01 08:44:47;;;;;;;68.18;50.28;;;15.60;74.40;;;;;;4903589;28;92059;-47
2023/01/01 08:47:23;;;;;;;68.32;50.53;;;15.50;74.30;;;;;;4893266;28;91245;-46
2023/01/01 08:49:50;;;;;;;68.32;50.25;;;15.50;74.30;;;;;;4899757;28;92278;-48
2023/01/01 08:52:16;;;;;;;67.82;49.83;;;15.60;74.40;;;;;;4912202;28;90037;-50
2023/01/01 08:54:42;;;;;;;67.50;49.97;;;15.50;74.30;;;;;;4906967;28;90001;-46
2023/01/01 08:57:08;;;;;;;67.85;50.05;;;15.60;74.40;;;;;;4903125;28;92572;-47
2023/01/01 08:59:34;;;;;;;67.55;49.60;;;15.50;74.30;;;;;;4898596;28;90108;-47
2023/01/01 09:01:59;;;;;;;68.13;50.10;;;15.50;74.40;;;;;;4896898;28;90579;-51
2023/01/01 09:04:25;;;;;;;67.82;50.00;;;15.50;74.60;;;;;;4900661;28;91231;-49
2023/01/01 09:06:52;;;;;;;67.65;50.38;;;15.50;74.70;;;;;;4899305;28;91628;-50
2023/01/01 09:09:18;;;;;;;67.43;50.05;;;15.50;74.60;;;;;;4910660;28;89891;-48
2023/01/01 09:11:51;;;;;;;67.70;50.22;;;15.50;74.50;;;;;;4903614;28;94186;-48
2023/01/01 09:14:16;;;;;;;68.60;49.95;;;15.50;74.50;;;;;;4903165;28;91748;-49
2023/01/01 09:16:42;;;;;;;71.05;50.05;;;15.50;74.50;;;;;;4899234;28;90453;-51
2023/01/01 09:19:07;;;;;;;68.18;49.95;;;15.50;74.50;;;;;;4910563;28;90060;-50
2023/01/01 09:21:33;;;;;;;66.82;50.20;;;15.50;74.40;;;;;;4897255;28;89926;-47
2023/01/01 09:23:59;;;;;;;70.28;50.95;;;15.60;74.50;;;;;;4897673;28;93980;-50
2023/01/01 09:26:25;;;;;;;68.75;49.75;;;15.50;74.50;;;;;;4907667;28;89962;-46
2023/01/01 09:28:51;;;;;;;70.30;49.83;;;15.50;74.80;;;;;;4900241;28;90944;-46
2023/01/01 09:31:16;;;;;;;67.80;50.65;;;15.50;74.70;;;;;;4902781;28;91149;-49
2023/01/01 09:33:42;;;;;;;69.15;50.28;;;15.50;74.80;;;;;;4892685;28;92746;-48
2023/01/01 09:36:25;;;;;;;67.95;49.92;;;15.50;75.00;;;;;;4906966;28;96499;-49
2023/01/01 09:38:51;;;;;;;68.32;50.25;;;15.50;74.90;;;;;;4897402;28;91933;-48
2023/01/01 09:41:26;;;;;;;67.13;50.22;;;15.50;75.00;;;;;;4897289;28;91228;-48
2023/01/01 09:44:00;;;;;;;68.45;49.97;;;15.50;75.00;;;;;;4907667;28;92566;-46
2023/01/01 09:46:26;;;;;;;68.93;50.20;;;15.50;74.90;;;;;;4906245;28;93381;-49
2023/01/01 09:48:57;;;;;;;68.15;49.70;;;15.50;74.80;;;;;;4906144;28;89811;-49
2023/01/01 09:51:25;;;;;;;69.75;50.28;;;15.50;74.70;;;;;;4912484;28;89867;-48
2023/01/01 09:54:04;;;;;;;66.93;49.97;;;15.50;74.60;;;;;;4901123;28;91066;-48
2023/01/01 09:56:33;;;;;;;69.50;50.28;;;15.50;74.60;;;;;;4898616;28;90023;-51
2023/01/01 09:58:59;;;;;;;67.60;49.50;;;15.60;74.70;;;;;;4908378;28;89842;-46
2023/01/01 10:01:31;;;;;;;70.97;49.83;;;15.60;74.60;;;;;;4907148;28;89690;-48
2023/01/01 10:04:26;;;;;;;71.13;50.40;;;15.60;74.50;;;;;;4902352;28;91050;-49
2023/01/01 10:07:11;;;;;;;68.43;50.38;;;15.60;74.50;;;;;;4895283;28;93458;-47
2023/01/01 10:10:03;;;;;;;68.32;50.03;;;15.60;74.40;;;;;;4911292;28;89678;-48
2023/01/01 10:12:29;;;;;;;68.25;50.25;;;15.60;74.40;;;;;;4897286;28;92193;-47
2023/01/01 10:15:10;;;;;;;69.53;50.35;;;15.60;74.40;;;;;;4895843;28;92795;-51
2023/01/01 10:17:38;;;;;;;;;;;15.60;74.40;;;;;;4902335;28;93502;-49
2023/01/01 10:20:25;;;;;;;68.35;50.25;;;15.60;74.30;;;;;;4912806;28;91453;-50
2023/01/01 10:22:59;;;;;;;66.90;50.15;;;15.60;74.30;;;;;;4900768;28;91822;-49
2023/01/01 10:25:28;;;;;;;70.00;50.10;;;15.70;74.30;;;;;;4897661;28;91695;-48
2023/01/01 10:28:11;;;;;;;68.18;49.95;;;15.70;74.30;;;;;;4907906;28;90177;-49
2023/01/01 10:30:39;;;;;;;68.82;50.40;;;15.70;74.30;;;;;;4895781;28;92904;-46
2023/01/01 10:33:11;;;;;;;70.65;50.40;;;15.70;74.30;;;;;;4892947;28;90684;-46
2023/01/01 10:35:48;;;;;;;69.40;50.35;;;15.70;74.20;;;;;;4907848;28;89504;-50
2023/01/01 10:38:24;;;;;;;70.68;50.10;;;15.70;74.20;;;;;;4896270;28;91236;-48
2023/01/01 10:40:57;;;;;;;68.15;50.13;;;15.70;74.00;;;;;;4901309;28;89789;-48
2023/01/01 10:43:23;;;;;;;71.28;50.05;;;15.70;74.00;;;;;;4904105;28;89546;-47
2023/01/01 10:45:53;;;;;;;68.25;50.35;;;15.80;74.00;;;;;;4904976;28;90220;-47
2023/01/01 10:48:21;;;;;;;68.55;50.38;;;15.70;73.90;;;;;;4908327;28;89666;-49
2023/01/01 10:50:53;;;;;;;69.80;50.17;;;15.70;73.90;;;;;;4893632;28;92991;-52
2023/01/01 10:53:51;;;;;;;69.22;50.40;;;15.80;73.90;;;;;;4902138;28;89949;-48
2023/01/01 10:56:19;;;;;;;68.68;50.00;;;15.80;73.90;;;;;;4901141;28;91374;-48
2023/01/01 10:58:47;;;;;;;70.40;50.45;;;15.80;73.90;;;;;;4906130;28;91085;-46
2023/01/01 11:01:26;;;;;;;69.22;50.10;;;15.80;73.80;;;;;;4909537;28;89642;-49
2023/01/01 11:04:07;;;;;;;69.05;50.05;;;15.80;73.80;;;;;;4909779;28;89761;-48
2023/01/01 11:06:32;;;;;;;68.37;49.87;;;15.80;73.70;;;;;;4899990;28;89813;-48
2023/01/01 11:09:02;;;;;;;77.57;52.10;;;15.90;74.40;;;;;;4900205;28;90340;-50
2023/01/01 11:11:29;;;;;;;90.22;55.08;;;15.90;75.20;;;;;;4900780;28;93303;-46
2023/01/01 11:14:03;;;;;;;98.47;56.08;;;15.90;77.20;;;;;;4911405;28;89685;-48
2023/01/01 11:16:29;;;;;;;94.60;56.28;;;16.00;78.70;;;;;;4907268;28;90176;-47
2023/01/01 11:19:04;;;;;;;96.50;56.55;;;16.00;79.30;;;;;;4906332;28;90648;-50
2023/01/01 11:21:30;;;;;;;102.45;56.08;;;16.00;79.40;;;;;;4896610;28;94699;-46
2023/01/01 11:24:29;;;;;;;96.10;55.33;;;16.00;79.30;;;;;;4912902;28;93328;-46
2023/01/01 11:27:18;;;;;;;91.38;55.28;;;16.00;79.40;;;;;;4913047;28;90768;-47
2023/01/01 11:29:43;;;;;;;92.40;54.72;;;16.00;79.30;;;;;;4907902;28;90260;-47
2023/01/01 11:32:18;;;;;;;86.40;54.38;;;16.00;79.10;;;;;;4914453;28;90663;-51
2023/01/01 11:34:47;;;;;;;87.80;54.42;;;16.00;79.10;;;;;;4897262;28;93287;-47
2023/01/01 11:37:23;;;;;;;84.47;54.05;;;16.00;78.90;;;;;;4895274;28;90450;-50
2023/01/01 11:39:51;;;;;;;80.65;53.35;;;16.00;78.60;;;;;;4904676;28;90364;-48
2023/01/01 11:42:26;;;;;;;83.55;53.20;;;16.00;78.40;;;;;;4909042;28;90209;-49
2023/01/01 11:44:57;;;;;;;80.95;53.05;;;16.00;78.30;;;;;;4908185;28;94078;-49
2023/01/01 11:47:25;;;;;;;80.47;52.67;;;16.00;78.10;;;;;;4900037;28;91732;-49
2023/01/01 11:50:15;;;;;;;86.85;52.20;;;16.00;78.00;;;;;;4895112;28;90950;-50
2023/01/01 11:52:44;;;;;;;78.13;51.92;;;16.00;77.40;;;;;;4908928;28;90354;-51
2023/01/01 11:55:54;;;;;;;77.93;51.67;;;16.00;76.80;;;;;;4898390;28;90416;-53
2023/01/01 11:58:35;;;;;;;73.90;51.53;;;16.00;75.90;;;;;;4895688;28;89694;-51
2023/01/01 12:01:12;;;;;;;76.65;51.42;;;15.90;75.20;;;;;;4891859;28;93657;-51
2023/01/01 12:03:46;;;;;;;77.25;51.42;;;16.00;76.50;;;;;;4893567;28;90817;-53
2023/01/01 12:06:25;;;;;;;75.90;51.53;;;16.00;75.90;;;;;;4902945;28;89405;-51
2023/01/01 12:08:58;;;;;;;77.45;51.80;;;16.10;74.20;;;;;;4905630;28;91177;-55
2023/01/01 12:11:40;;;;;;;77.25;51.60;;;16.10;75.30;;;;;;4907666;28;91822;-48
2023/01/01 12:14:28;;;;;;;78.72;51.83;;;16.20;76.00;;;;;;4902444;28;92181;-51
2023/01/01 12:17:00;;;;;;;73.75;51.60;;;16.30;76.60;;;;;;4898964;28;92825;-46
2023/01/01 12:19:38;;;;;;;84.82;51.88;;;16.40;76.90;;;;;;4895410;28;94560;-51
2023/01/01 12:22:14;;;;;;;75.15;51.70;;;16.40;77.10;;;;;;4898642;28;93280;-55
2023/01/01 12:24:41;;;;;;;75.00;52.35;;;16.50;77.70;;;;;;4902471;28;90305;-54
2023/01/01 12:27:34;;;;;;;73.82;51.30;;;16.50;78.20;;;;;;4906977;28;90008;-51
2023/01/01 12:30:10;;;;;;;77.10;52.20;;;16.50;77.90;;;;;;4895438;28;90516;-55
2023/01/01 12:32:39;;;;;;;76.45;52.10;;;16.60;78.30;;;;;;4887642;28;89093;-55
2023/01/01 12:35:31;;;;;;;74.10;51.67;;;16.60;78.70;;;;;;4894053;28;92001;-53
2023/01/01 12:38:20;;;;;;;72.85;51.15;;;16.70;78.70;;;;;;4898029;28;90410;-51
2023/01/01 12:41:05;;;;;;;77.40;52.28;;;16.60;78.20;;;;;;4900615;28;92239;-49
2023/01/01 12:44:10;;;;;;;74.90;51.70;;;16.50;77.70;;;;;;4903143;28;93575;-50
2023/01/01 12:47:07;;;;;;;73.72;51.88;;;16.50;77.20;;;;;;4886031;28;92667;-51
2023/01/01 12:50:07;;;;;;;77.57;51.13;;;16.40;76.80;;;;;;4896808;28;92088;-55
2023/01/01 12:52:51;;;;;;;76.25;51.95;;;16.40;77.20;;;;;;4897608;28;91777;-54